Time;durP1;ratioP1;P1;durP2;ratioP2;P2;SDS_P1;SDS_P2;PMS_P1;PMS_P2;Temp;Humidity;BMP_temperature;BMP_pressure;BME280_temperature;BME280_humidity;BME280_pressure;Samples;Min_cycle;Max_cycle;Signal;HPM_P1;HPM_P2
2022/10/18 00:02:01;;;;;;;18.42;12.15;;;;;;;11.11;55.32;101791.89;1647184;86;21055;-71
2022/10/18 00:04:27;;;;;;;15.65;11.75;;;;;;;11.05;55.87;101786.69;1646284;85;21078;-68
2022/10/18 00:06:53;;;;;;;15.40;12.18;;;;;;;11.01;56.04;101790.66;1629255;88;21522;-69
2022/10/18 00:09:20;;;;;;;20.87;12.40;;;;;;;10.95;56.39;101779.29;1652500;87;21590;-69
2022/10/18 00:11:48;;;;;;;16.77;11.57;;;;;;;10.89;56.81;101775.91;1629124;88;21078;-72
2022/10/18 00:14:14;;;;;;;14.23;11.12;;;;;;;10.81;57.48;101773.16;1652519;87;21041;-78
2022/10/18 00:16:40;;;;;;;14.65;11.48;;;;;;;10.74;57.44;101769.44;1629171;85;21055;-70
2022/10/18 00:19:06;;;;;;;15.68;11.38;;;;;;;10.66;57.46;101768.40;1650161;86;21616;-70
2022/10/18 00:21:32;;;;;;;18.50;11.60;;;;;;;10.62;57.55;101770.17;1647747;85;21552;-70
2022/10/18 00:23:59;;;;;;;17.20;11.93;;;;;;;10.59;57.69;101762.00;1653553;87;21190;-67
2022/10/18 00:26:28;;;;;;;19.40;11.43;;;;;;;10.56;57.77;101765.47;1630554;85;21156;-70
2022/10/18 00:29:00;;;;;;;12.67;10.80;;;;;;;10.52;57.98;101760.43;1627691;87;21503;-67
2022/10/18 00:31:34;;;;;;;17.67;11.63;;;;;;;10.51;58.16;101768.10;1629325;88;21092;-68
2022/10/18 00:34:06;;;;;;;16.37;12.43;;;;;;;10.50;58.34;101760.25;1649767;85;21017;-79
2022/10/18 00:36:33;;;;;;;17.47;11.23;;;;;;;10.44;58.72;101762.20;1668196;86;21061;-68
2022/10/18 00:39:03;;;;;;;15.13;11.63;;;;;;;10.38;58.85;101758.31;1697924;84;21226;-77
2022/10/18 00:41:33;;;;;;;17.53;11.67;;;;;;;10.36;59.15;101755.44;1697885;80;21024;-69
2022/10/18 00:44:04;;;;;;;18.63;12.03;;;;;;;10.31;59.43;101751.41;1667682;86;21035;-68
2022/10/18 00:46:34;;;;;;;13.20;10.67;;;;;;;10.29;59.77;101749.36;1667873;86;21006;-68
2022/10/18 00:49:27;;;;;;;20.93;12.17;;;;;;;10.23;59.75;101751.31;1667554;86;21535;-67
2022/10/18 00:52:05;;;;;;;13.70;10.50;;;;;;;10.19;59.99;101747.28;1644571;86;21022;-69
2022/10/18 00:54:33;;;;;;;;;;;;;;;10.13;60.08;101746.06;1669788;86;21049;-71
2022/10/18 00:57:00;;;;;;;15.97;9.77;;;;;;;10.10;60.44;101753.01;1667317;85;20137;-71
2022/10/18 00:59:27;;;;;;;15.23;11.33;;;;;;;10.03;60.69;101753.77;1644178;86;21023;-68
2022/10/18 01:01:55;;;;;;;15.27;11.37;;;;;;;10.02;60.79;101748.08;1666981;84;21026;-68
2022/10/18 01:04:21;;;;;;;16.42;11.28;;;;;;;9.69;60.92;101694.47;1667259;85;21054;-69
2022/10/18 01:07:13;;;;;;;17.52;12.47;;;;;;;10.00;61.18;101746.92;1667444;86;21086;-69
2022/10/18 01:09:51;;;;;;;17.47;11.03;;;;;;;9.98;61.22;101743.53;1667047;84;21017;-68
2022/10/18 01:12:48;;;;;;;16.70;10.07;;;;;;;9.96;61.18;101734.03;1666648;85;21081;-68
2022/10/18 01:15:31;;;;;;;14.23;10.17;;;;;;;9.95;61.36;101734.53;1678501;85;21548;-67
2022/10/18 01:18:27;;;;;;;11.70;9.67;;;;;;;9.92;61.71;101730.33;1677985;85;21071;-67
2022/10/18 01:21:20;;;;;;;14.83;12.10;;;;;;;9.89;61.98;101725.82;1668253;85;21626;-73
2022/10/18 01:24:27;;;;;;;16.23;11.67;;;;;;;9.85;62.12;101725.28;1642932;87;21195;-69
2022/10/18 01:27:20;;;;;;;24.53;10.83;;;;;;;9.84;62.00;101725.42;1668919;86;21053;-70
2022/10/18 01:30:26;;;;;;;18.87;11.40;;;;;;;9.81;62.14;101718.55;1629585;87;21116;-71
2022/10/18 01:32:59;;;;;;;12.53;10.63;;;;;;;9.76;62.43;101708.86;1652322;85;21005;-70
2022/10/18 01:35:30;;;;;;;16.43;10.87;;;;;;;9.73;62.54;101716.64;1669556;86;20998;-67
2022/10/18 01:38:01;;;;;;;17.17;9.63;;;;;;;9.72;62.35;101716.81;1639164;87;21067;-72
2022/10/18 01:40:29;;;;;;;13.37;10.30;;;;;;;9.73;62.38;101709.15;1629083;87;21068;-68
2022/10/18 01:42:55;;;;;;;16.00;10.90;;;;;;;9.72;62.62;101712.81;1652174;86;21191;-69
2022/10/18 01:45:24;;;;;;;17.17;10.93;;;;;;;9.71;62.68;101707.13;1668015;85;21069;-69
2022/10/18 01:47:53;;;;;;;15.63;10.13;;;;;;;9.70;62.74;101702.78;1681232;85;21111;-69
2022/10/18 01:50:33;;;;;;;17.40;10.70;;;;;;;9.70;62.61;101700.12;1681251;83;21107;-68
2022/10/18 01:53:00;;;;;;;16.87;11.30;;;;;;;9.69;62.71;101700.62;1681049;83;21545;-67
2022/10/18 01:55:38;;;;;;;;;;;;;;;9.67;62.68;101696.44;1683729;85;21136;-68
2022/10/18 01:58:32;;;;;;;15.20;10.50;;;;;;;9.64;62.79;101689.57;1680403;82;20159;-67
2022/10/18 02:01:07;;;;;;;14.10;9.30;;;;;;;9.55;62.97;101684.66;1680442;84;21112;-69
2022/10/18 02:03:36;;;;;;;14.40;9.60;;;;;;;9.54;63.16;101685.64;1680908;85;21895;-68
2022/10/18 02:06:31;;;;;;;13.27;9.40;;;;;;;9.53;63.11;101681.31;1680834;83;21005;-68
2022/10/18 02:09:15;;;;;;;14.90;10.17;;;;;;;9.51;63.15;101675.78;1680915;83;21067;-70
2022/10/18 02:11:45;;;;;;;15.93;9.13;;;;;;;9.49;63.23;101679.08;1680968;85;21084;-71
2022/10/18 02:14:16;;;;;;;16.20;10.37;;;;;;;9.46;63.32;101674.91;1680955;83;21048;-69
2022/10/18 02:16:54;;;;;;;17.20;10.37;;;;;;;9.46;63.28;101677.56;1657729;85;21040;-70
2022/10/18 02:19:38;;;;;;;16.40;10.68;;;;;;;9.46;63.50;101672.24;1681498;85;21127;-68
2022/10/18 02:22:08;;;;;;;14.43;9.97;;;;;;;9.46;63.25;101673.58;1681125;82;21103;-73
2022/10/18 02:24:40;;;;;;;16.47;9.77;;;;;;;9.46;63.18;101664.26;1680993;83;21068;-68
2022/10/18 02:27:06;;;;;;;15.53;10.33;;;;;;;9.47;63.05;101668.58;1681279;85;21119;-67
2022/10/18 02:29:33;;;;;;;;;;;;;;;9.48;63.08;101658.29;1683556;82;21060;-69
2022/10/18 02:32:31;;;;;;;16.20;10.27;;;;;;;9.49;63.24;101660.45;1681180;85;20160;-70
2022/10/18 02:35:08;;;;;;;14.30;9.80;;;;;;;9.43;63.26;101659.22;1668222;85;21055;-70
2022/10/18 02:37:38;;;;;;;15.93;10.47;;;;;;;9.42;63.14;101660.23;1681048;83;21103;-74
2022/10/18 02:40:08;;;;;;;14.00;9.53;;;;;;;9.42;62.97;101654.91;1680971;82;20993;-69
2022/10/18 02:42:45;;;;;;;18.50;11.07;;;;;;;9.43;62.88;101655.73;1657562;85;21127;-67
2022/10/18 02:45:13;;;;;;;12.83;9.97;;;;;;;9.46;62.91;101659.44;1680109;83;21088;-67
2022/10/18 02:47:41;;;;;;;12.47;10.30;;;;;;;9.45;63.18;101653.25;1681020;85;21147;-70
2022/10/18 02:50:08;;;;;;;16.10;10.60;;;;;;;9.46;63.15;101650.13;1680802;83;21144;-69
2022/10/18 02:52:34;;;;;;;15.08;10.50;;;;;;;9.46;62.97;101656.27;1681277;83;21087;-71
2022/10/18 02:55:00;;;;;;;17.98;10.80;;;;;;;9.45;63.05;101654.59;1680992;85;21497;-68
2022/10/18 02:57:29;;;;;;;14.93;9.70;;;;;;;9.45;62.95;101646.60;1680949;84;21016;-69
2022/10/18 02:59:55;;;;;;;14.33;10.18;;;;;;;9.45;63.60;101643.11;1681410;85;21051;-67
2022/10/18 03:02:21;;;;;;;18.27;10.03;;;;;;;9.42;63.74;101636.27;1681323;84;21642;-67
2022/10/18 03:04:48;;;;;;;15.10;9.63;;;;;;;9.40;63.75;101636.92;1680897;83;21509;-67
2022/10/18 03:07:14;;;;;;;14.07;10.05;;;;;;;9.37;63.88;101629.22;1681469;85;21044;-70
2022/10/18 03:09:40;;;;;;;17.60;9.58;;;;;;;9.36;64.03;101626.20;1681158;84;21024;-67
2022/10/18 03:12:07;;;;;;;13.25;10.30;;;;;;;9.33;64.05;101623.86;1681394;82;21039;-70
2022/10/18 03:14:33;;;;;;;11.88;8.90;;;;;;;9.31;64.14;101620.01;1681382;85;21903;-77
2022/10/18 03:16:59;;;;;;;19.45;10.70;;;;;;;9.30;64.34;101615.66;1681216;83;21083;-71
2022/10/18 03:19:25;;;;;;;12.50;8.80;;;;;;;9.29;64.62;101610.01;1681480;85;21013;-73
2022/10/18 03:21:51;;;;;;;17.80;10.60;;;;;;;9.29;64.45;101621.16;1681037;84;21036;-70
2022/10/18 03:24:17;;;;;;;14.40;10.70;;;;;;;9.28;64.24;101615.47;1681327;84;21067;-68
2022/10/18 03:26:45;;;;;;;13.70;10.37;;;;;;;9.28;63.95;101611.48;1680959;85;21548;-69
2022/10/18 03:29:11;;;;;;;13.72;10.13;;;;;;;9.30;63.95;101608.18;1681109;83;21099;-74
2022/10/18 03:31:38;;;;;;;11.65;9.25;;;;;;;9.30;63.94;101610.84;1681169;85;21063;-67
2022/10/18 03:34:04;;;;;;;18.50;10.32;;;;;;;9.29;63.88;101609.19;1681320;82;21095;-73
2022/10/18 03:36:32;;;;;;;15.90;10.45;;;;;;;9.29;63.92;101613.17;1680733;83;21044;-69
2022/10/18 03:38:58;;;;;;;15.60;10.00;;;;;;;9.29;63.71;101619.83;1681193;85;21119;-71
2022/10/18 03:41:24;;;;;;;12.33;8.73;;;;;;;8.98;63.44;101564.24;1681049;83;21125;-68
2022/10/18 03:43:51;;;;;;;13.45;9.38;;;;;;;9.30;63.50;101606.84;1681374;85;21087;-69
2022/10/18 03:46:17;;;;;;;16.77;8.85;;;;;;;9.30;63.46;101613.50;1680562;83;21047;-66
2022/10/18 03:48:44;;;;;;;14.97;9.67;;;;;;;9.28;63.64;101610.98;1680422;82;21087;-69
2022/10/18 03:51:10;;;;;;;10.75;9.30;;;;;;;9.27;63.23;101615.98;1681150;85;21111;-72
2022/10/18 03:53:38;;;;;;;12.77;9.43;;;;;;;9.27;62.88;101613.81;1680939;84;21044;-70
2022/10/18 03:56:05;;;;;;;19.25;10.80;;;;;;;9.28;62.92;101606.16;1681256;82;21048;-69
2022/10/18 03:58:31;;;;;;;16.40;9.50;;;;;;;9.27;63.04;101604.50;1681022;85;21419;-68
2022/10/18 04:00:57;;;;;;;12.03;9.50;;;;;;;9.21;63.34;101597.95;1681004;83;21126;-68
2022/10/18 04:03:23;;;;;;;16.50;10.25;;;;;;;9.15;63.56;101602.05;1681293;85;21082;-68
2022/10/18 04:05:50;;;;;;;21.50;10.28;;;;;;;9.10;63.61;101597.66;1681184;82;21046;-72
2022/10/18 04:08:17;;;;;;;13.43;9.87;;;;;;;9.05;63.73;101597.25;1680747;83;21613;-73
2022/10/18 04:10:44;;;;;;;13.83;9.93;;;;;;;9.03;64.01;101591.74;1681317;85;21032;-71
2022/10/18 04:13:10;;;;;;;;;;;;;;;8.67;64.63;101531.30;1683354;82;21099;-68
2022/10/18 04:15:36;;;;;;;13.43;9.83;;;;;;;8.97;65.20;101585.19;1680994;85;20156;-72
2022/10/18 04:18:03;;;;;;;17.65;8.60;;;;;;;8.56;64.95;101528.83;1681264;84;21124;-68
2022/10/18 04:20:30;;;;;;;13.23;9.50;;;;;;;8.89;64.67;101574.44;1680867;82;21012;-69
2022/10/18 04:22:57;;;;;;;17.40;10.20;;;;;;;8.91;64.54;101576.45;1681134;85;21191;-70
2022/10/18 04:25:24;;;;;;;14.73;9.35;;;;;;;8.95;64.73;101575.20;1680954;84;21048;-69
2022/10/18 04:27:51;;;;;;;11.40;9.10;;;;;;;8.97;64.42;101574.55;1680854;85;21060;-69
2022/10/18 04:30:18;;;;;;;12.10;9.38;;;;;;;9.01;64.56;101577.26;1681199;84;21068;-68
2022/10/18 04:32:45;;;;;;;14.70;9.80;;;;;;;9.04;64.71;101572.98;1680765;82;21095;-72
2022/10/18 04:35:12;;;;;;;19.85;9.68;;;;;;;9.07;64.27;101574.50;1680834;85;21072;-70
2022/10/18 04:37:38;;;;;;;18.00;12.58;;;;;;;9.09;63.97;101574.69;1681416;83;21119;-68
2022/10/18 04:40:06;;;;;;;14.98;11.95;;;;;;;9.12;64.37;101567.75;1681168;82;21119;-67
2022/10/18 04:42:32;;;;;;;19.60;9.50;;;;;;;9.15;64.36;101559.95;1681299;85;21550;-72
2022/10/18 04:44:59;;;;;;;17.07;9.93;;;;;;;9.22;64.08;101557.05;1680929;83;21237;-68
2022/10/18 04:47:25;;;;;;;14.38;10.50;;;;;;;9.30;63.98;101549.14;1681567;85;21015;-71
2022/10/18 04:49:51;;;;;;;10.90;8.55;;;;;;;9.38;64.15;101547.09;1681094;82;21072;-70
2022/10/18 04:52:17;;;;;;;18.37;10.20;;;;;;;9.44;63.72;101546.47;1681279;83;21060;-72
2022/10/18 04:54:44;;;;;;;10.70;9.03;;;;;;;9.50;63.65;101541.04;1681460;85;21080;-68
2022/10/18 04:57:10;;;;;;;12.80;8.80;;;;;;;9.67;63.10;101539.37;1681047;84;21084;-70
2022/10/18 04:59:36;;;;;;;12.30;9.25;;;;;;;9.90;61.87;101537.05;1681502;85;21108;-70
2022/10/18 05:02:03;;;;;;;17.07;9.23;;;;;;;10.08;61.12;101534.38;1680987;84;21597;-72
2022/10/18 05:04:29;;;;;;;15.88;10.00;;;;;;;10.22;60.23;101526.30;1681151;82;21096;-71
2022/10/18 05:06:56;;;;;;;14.63;9.13;;;;;;;10.40;58.81;101527.11;1681030;85;21523;-70
2022/10/18 05:09:23;;;;;;;17.73;9.60;;;;;;;10.80;57.81;101528.30;1680986;84;20993;-70
2022/10/18 05:11:51;;;;;;;11.30;8.80;;;;;;;11.40;56.65;101525.13;1680873;85;21127;-71
2022/10/18 05:14:17;;;;;;;14.10;8.95;;;;;;;12.07;54.62;101527.66;1680580;82;21584;-72
2022/10/18 05:16:44;;;;;;;15.70;9.08;;;;;;;12.70;51.16;101528.68;1680287;83;21091;-76
2022/10/18 05:19:10;;;;;;;17.77;9.45;;;;;;;13.23;50.03;101524.39;1680582;85;21540;-69
2022/10/18 05:21:37;;;;;;;12.82;9.28;;;;;;;13.63;48.72;101529.16;1680534;83;21517;-75
2022/10/18 05:24:03;;;;;;;;;;;;;;;14.05;47.30;101524.28;1683100;85;21954;-71
2022/10/18 05:26:29;;;;;;;10.65;9.35;;;;;;;14.38;45.97;101527.98;1680317;85;20509;-70
2022/10/18 05:28:55;;;;;;;14.65;9.83;;;;;;;14.53;45.58;101526.65;1680278;83;21079;-72
2022/10/18 05:31:22;;;;;;;14.25;9.90;;;;;;;14.76;44.59;101522.54;1680872;85;21097;-72
2022/10/18 05:33:48;;;;;;;16.23;9.95;;;;;;;14.88;44.61;101531.80;1680448;82;21020;-73
2022/10/18 05:36:15;;;;;;;12.65;9.05;;;;;;;15.10;44.01;101529.14;1680482;83;21083;-69
2022/10/18 05:38:44;;;;;;;13.98;8.98;;;;;;;15.42;43.86;101533.73;1680739;85;21083;-70
2022/10/18 05:41:11;;;;;;;12.25;8.93;;;;;;;15.79;42.91;101535.88;1680505;82;21099;-79
2022/10/18 05:43:38;;;;;;;13.50;9.50;;;;;;;16.40;40.60;101540.14;1680897;85;21096;-74
2022/10/18 05:46:07;;;;;;;14.28;9.38;;;;;;;16.40;40.60;101540.14;1680240;83;21895;-72
2022/10/18 05:48:33;;;;;;;15.05;9.03;;;;;;;16.47;41.12;101541.02;1680717;82;21088;-73
2022/10/18 05:51:00;;;;;;;12.45;9.80;;;;;;;16.72;40.21;101537.30;1680441;85;21171;-75
2022/10/18 05:53:28;;;;;;;16.97;10.90;;;;;;;16.96;39.90;101537.88;1680951;84;21099;-75
2022/10/18 05:55:54;;;;;;;17.25;9.63;;;;;;;17.21;39.15;101535.98;1680388;85;21048;-74
2022/10/18 05:58:20;;;;;;;;;;;;;;;17.37;38.37;101536.96;1682845;82;21055;-75
2022/10/18 06:00:46;;;;;;;17.92;8.63;;;;;;;16.15;40.30;101536.56;1680408;83;20127;-76
2022/10/18 06:07:10;;;;;;;17.42;9.53;;;;;;;15.55;41.25;101538.70;1680411;85;20340;-74
2022/10/18 06:09:37;;;;;;;15.18;8.85;;;;;;;14.59;43.18;101539.34;1680156;83;21556;-75
2022/10/18 06:12:04;;;;;;;13.88;9.73;;;;;;;14.11;44.57;101545.02;1680224;84;21051;-73
2022/10/18 06:14:30;;;;;;;18.45;9.48;;;;;;;13.70;45.32;101543.20;1681811;85;20996;-76
2022/10/18 06:16:58;;;;;;;17.60;9.68;;;;;;;13.38;46.34;101541.91;1680472;83;21587;-74
2022/10/18 06:19:24;;;;;;;11.18;8.48;;;;;;;13.18;47.51;101546.01;1681272;85;21458;-75
2022/10/18 06:21:51;;;;;;;11.83;9.45;;;;;;;13.05;48.11;101538.55;1680597;82;21535;-76
2022/10/18 06:24:17;;;;;;;16.42;9.78;;;;;;;12.89;48.23;101539.47;1680900;83;21079;-75
2022/10/18 06:26:45;;;;;;;12.37;9.90;;;;;;;12.74;48.82;101541.20;1680784;85;21060;-75
2022/10/18 06:29:12;;;;;;;12.70;9.13;;;;;;;12.60;49.08;101535.58;1680916;84;21172;-75
2022/10/18 06:31:39;;;;;;;12.88;9.38;;;;;;;12.56;49.87;101534.23;1681501;85;21128;-76
2022/10/18 06:34:05;;;;;;;10.53;8.95;;;;;;;12.54;49.75;101534.91;1680823;83;21048;-75
2022/10/18 06:36:31;;;;;;;15.03;8.40;;;;;;;12.52;50.05;101534.75;1681015;83;21152;-76
2022/10/18 06:38:58;;;;;;;13.43;9.78;;;;;;;12.55;50.38;101539.77;1680442;85;21064;-76
2022/10/18 06:41:25;;;;;;;12.35;9.28;;;;;;;12.58;50.20;101536.73;1680359;83;21587;-77
2022/10/18 06:43:56;;;;;;;12.50;8.85;;;;;;;12.64;50.38;101537.41;1680562;85;21509;-81
2022/10/18 06:46:23;;;;;;;14.98;10.60;;;;;;;12.73;50.64;101540.87;1681035;82;21047;-84
2022/10/18 06:48:49;;;;;;;15.20;11.43;;;;;;;12.81;49.96;101539.00;1681986;84;21047;-84
2022/10/18 06:51:17;;;;;;;20.30;11.68;;;;;;;12.87;49.90;101530.78;1681206;85;21108;-84
2022/10/18 06:53:44;;;;;;;12.75;9.95;;;;;;;12.91;49.63;101530.76;1681467;82;21524;-74
2022/10/18 06:56:12;;;;;;;12.30;9.10;;;;;;;12.95;49.58;101525.37;1680357;83;21086;-73
2022/10/18 06:58:39;;;;;;;14.58;9.38;;;;;;;12.98;49.52;101522.36;1680103;85;21632;-73
2022/10/18 07:01:14;;;;;;;12.23;9.08;;;;;;;12.99;49.22;101518.66;1680107;84;21058;-76
2022/10/18 07:03:44;;;;;;;14.90;10.10;;;;;;;12.96;49.55;101518.17;1680914;85;21100;-81
2022/10/18 07:06:12;;;;;;;20.27;10.15;;;;;;;12.95;49.93;101510.66;1679875;82;21052;-81
2022/10/18 07:08:39;;;;;;;14.25;9.05;;;;;;;12.98;49.87;101505.48;1679896;83;21103;-84
2022/10/18 07:11:11;;;;;;;11.43;9.48;;;;;;;13.00;49.89;101508.30;1679789;85;21060;-80
2022/10/18 07:13:38;;;;;;;12.35;9.88;;;;;;;13.06;49.97;101505.43;1679951;83;21135;-79
2022/10/18 07:16:16;;;;;;;21.30;10.65;;;;;;;13.11;50.05;101501.73;1679896;82;21064;-80
2022/10/18 07:18:50;;;;;;;12.98;9.40;;;;;;;13.18;50.05;101503.17;1680074;85;21099;-79
2022/10/18 07:21:21;;;;;;;19.77;10.32;;;;;;;13.27;49.60;101497.27;1680344;84;21051;-79
2022/10/18 07:23:50;;;;;;;18.77;11.12;;;;;;;13.37;49.52;101495.21;1680014;85;21553;-75
2022/10/18 07:26:29;;;;;;;15.55;9.85;;;;;;;13.45;48.75;101491.16;1629203;84;21103;-77
2022/10/18 07:29:07;;;;;;;15.43;8.93;;;;;;;13.51;49.05;101486.41;1651329;86;21024;-79
2022/10/18 07:31:34;;;;;;;16.87;10.20;;;;;;;13.60;48.90;101489.87;1652057;87;21043;-77
2022/10/18 07:34:03;;;;;;;19.52;10.05;;;;;;;13.70;48.88;101485.08;1664974;86;21184;-80
2022/10/18 07:36:31;;;;;;;14.68;9.93;;;;;;;13.82;48.84;101488.15;1652730;84;21076;-80
2022/10/18 07:38:58;;;;;;;16.62;10.23;;;;;;;13.93;48.58;101488.22;1652492;87;21180;-75
2022/10/18 07:41:25;;;;;;;;;;;;;;;14.03;48.50;101484.76;1655387;85;21123;-82
2022/10/18 07:43:52;;;;;;;14.35;9.68;;;;;;;14.15;47.99;101489.19;1624222;88;20254;-79
2022/10/18 07:46:22;;;;;;;17.25;9.78;;;;;;;14.17;47.98;101473.75;1668536;85;21042;-76
2022/10/18 07:48:50;;;;;;;15.00;9.30;;;;;;;14.28;47.83;101479.13;1652271;85;21061;-78
2022/10/18 07:51:19;;;;;;;13.80;9.25;;;;;;;14.37;47.89;101478.88;1669286;86;21117;-77
2022/10/18 07:53:46;;;;;;;11.78;9.35;;;;;;;14.50;47.58;101473.36;1651122;86;21054;-81
2022/10/18 07:56:19;;;;;;;16.23;9.35;;;;;;;14.62;47.71;101467.87;1668608;84;21573;-84
2022/10/18 07:58:50;;;;;;;18.90;9.30;;;;;;;14.79;47.60;101459.10;1652082;87;21041;-83
2022/10/18 08:01:21;;;;;;;15.78;9.13;;;;;;;14.98;47.13;101449.09;1667973;84;21046;-79
2022/10/18 08:03:48;;;;;;;11.12;8.48;;;;;;;15.13;46.11;101440.16;1651707;87;21893;-81
2022/10/18 08:06:17;;;;;;;16.60;8.65;;;;;;;15.29;45.67;101443.91;1668097;84;21805;-80
2022/10/18 08:08:45;;;;;;;16.75;8.78;;;;;;;15.43;45.79;101446.22;1652968;85;21509;-78
2022/10/18 08:11:16;;;;;;;15.20;8.88;;;;;;;15.58;45.10;101446.14;1670188;86;21464;-80
2022/10/18 08:13:43;;;;;;;18.15;8.70;;;;;;;15.73;44.61;101441.53;1653170;86;21037;-81
2022/10/18 08:16:13;;;;;;;13.03;8.53;;;;;;;15.89;44.45;101436.36;1670077;85;21014;-79
2022/10/18 08:18:40;;;;;;;12.37;7.53;;;;;;;16.03;43.53;101428.38;1653498;87;21564;-82
2022/10/18 08:21:10;;;;;;;13.18;8.63;;;;;;;16.15;43.60;101422.77;1669157;85;21109;-80
2022/10/18 08:23:39;;;;;;;12.70;7.50;;;;;;;16.29;43.19;101420.97;1651890;87;21168;-79
2022/10/18 08:26:09;;;;;;;8.90;6.03;;;;;;;16.43;42.62;101413.28;1668730;84;21203;-79
2022/10/18 08:28:36;;;;;;;10.32;5.92;;;;;;;16.59;42.15;101412.08;1651614;85;21041;-78
2022/10/18 08:31:09;;;;;;;11.88;7.10;;;;;;;16.73;41.94;101408.41;1647557;86;21601;-80
2022/10/18 08:33:36;;;;;;;8.18;5.67;;;;;;;16.86;42.08;101404.96;1651622;86;21191;-83
2022/10/18 08:36:05;;;;;;;10.03;5.08;;;;;;;17.01;41.22;101399.89;1668878;85;21498;-81
2022/10/18 08:38:34;;;;;;;9.65;5.83;;;;;;;17.15;40.59;101398.88;1652684;87;21045;-80
2022/10/18 08:41:24;;;;;;;12.33;6.55;;;;;;;17.35;40.41;101389.47;1648161;86;21205;-81
2022/10/18 08:44:16;;;;;;;7.33;4.83;;;;;;;17.35;40.41;101389.47;1652063;87;21089;-81
2022/10/18 08:46:50;;;;;;;10.35;5.12;;;;;;;17.47;40.05;101388.31;1668994;86;21078;-77
2022/10/18 08:49:27;;;;;;;10.15;4.70;;;;;;;17.60;39.99;101385.61;1652423;86;21065;-81
2022/10/18 08:51:56;;;;;;;5.55;4.70;;;;;;;17.75;39.51;101387.26;1661102;86;21073;-78
2022/10/18 08:54:35;;;;;;;11.93;5.35;;;;;;;17.88;39.42;101379.16;1640316;87;21118;-77
2022/10/18 08:57:06;;;;;;;7.42;5.20;;;;;;;18.02;39.49;101374.02;1673246;82;21641;-81
2022/10/18 08:59:43;;;;;;;9.93;4.60;;;;;;;18.19;39.23;101370.86;1673423;86;21187;-78
2022/10/18 09:02:33;;;;;;;8.40;5.33;;;;;;;18.32;38.76;101377.55;1646499;85;21044;-76
2022/10/18 09:05:23;;;;;;;7.50;5.20;;;;;;;18.42;38.52;101372.53;1681300;84;21048;-78
2022/10/18 09:08:23;;;;;;;7.60;4.55;;;;;;;18.58;38.54;101367.14;1694853;85;21072;-79
2022/10/18 09:11:16;;;;;;;10.40;5.33;;;;;;;18.71;38.24;101358.67;1694938;85;21104;-79
2022/10/18 09:14:21;;;;;;;7.40;5.08;;;;;;;18.82;37.97;101354.77;1694129;83;21647;-80
2022/10/18 09:17:08;;;;;;;6.90;4.80;;;;;;;18.89;37.82;101352.01;1668544;85;21611;-80
2022/10/18 09:20:08;;;;;;;9.10;4.45;;;;;;;19.01;37.47;101350.80;1694270;85;21066;-79
2022/10/18 09:23:19;;;;;;;6.97;4.15;;;;;;;19.09;37.48;101341.06;1694023;85;21079;-80
2022/10/18 09:26:20;;;;;;;6.83;4.92;;;;;;;19.20;37.48;101340.88;1694475;83;21084;-79
2022/10/18 09:29:04;;;;;;;5.60;4.87;;;;;;;19.31;37.07;101332.05;1693890;81;21621;-81
2022/10/18 09:31:47;;;;;;;5.95;4.17;;;;;;;19.39;37.12;101324.99;1693750;85;21056;-82
2022/10/18 09:34:19;;;;;;;7.15;4.40;;;;;;;19.41;36.98;101316.66;1693851;83;21592;-80
2022/10/18 09:36:49;;;;;;;4.92;4.33;;;;;;;19.48;37.09;101320.64;1692975;81;21024;-80
2022/10/18 09:39:20;;;;;;;5.37;4.87;;;;;;;19.53;37.34;101316.21;1695862;85;21161;-85
2022/10/18 09:42:01;;;;;;;5.42;4.75;;;;;;;19.60;37.48;101308.86;1695013;83;21573;-79
2022/10/18 09:44:38;;;;;;;5.90;4.22;;;;;;;19.72;37.11;101304.05;1692669;83;21816;-81
2022/10/18 09:47:13;;;;;;;13.50;4.17;;;;;;;19.80;37.01;101300.56;1694097;85;21105;-79
2022/10/18 09:49:45;;;;;;;8.73;3.90;;;;;;;19.87;36.76;101301.81;1694378;83;21102;-80
2022/10/18 09:52:31;;;;;;;4.50;3.85;;;;;;;19.96;36.95;101284.77;1693338;81;21088;-79
2022/10/18 09:55:04;;;;;;;9.38;3.90;;;;;;;19.99;36.68;101275.66;1694007;84;21049;-79
2022/10/18 09:57:34;;;;;;;7.87;3.87;;;;;;;20.05;37.19;101277.16;1694142;83;21095;-80
2022/10/18 10:00:14;;;;;;;6.45;3.67;;;;;;;20.08;36.90;101274.83;1694277;85;21080;-80
2022/10/18 10:02:42;;;;;;;4.78;3.90;;;;;;;20.16;36.79;101268.27;1695775;85;21077;-77
2022/10/18 10:05:13;;;;;;;6.37;3.47;;;;;;;20.23;36.65;101264.95;1695786;83;21498;-80
2022/10/18 10:07:46;;;;;;;6.25;4.40;;;;;;;20.28;36.74;101258.30;1695926;85;21110;-80
2022/10/18 10:10:18;;;;;;;4.33;4.03;;;;;;;20.32;36.81;101255.42;1669953;85;21016;-81
2022/10/18 10:12:46;;;;;;;5.42;3.45;;;;;;;20.34;36.80;101253.84;1695771;81;21454;-79
2022/10/18 10:15:22;;;;;;;6.58;3.75;;;;;;;20.36;36.91;101241.74;1694365;85;21104;-84
2022/10/18 10:17:56;;;;;;;5.65;3.58;;;;;;;20.37;36.36;101243.91;1693827;83;21001;-78
2022/10/18 10:20:45;;;;;;;5.03;3.10;;;;;;;20.36;36.13;101234.97;1693978;81;21175;-80
2022/10/18 10:23:21;;;;;;;4.58;3.17;;;;;;;20.37;36.28;101239.31;1694023;85;21068;-80
2022/10/18 10:25:55;;;;;;;3.22;2.77;;;;;;;20.35;36.46;101237.37;1693762;83;21063;-79
2022/10/18 10:28:29;;;;;;;3.80;3.17;;;;;;;20.39;36.63;101233.67;1693642;83;21553;-77
2022/10/18 10:31:26;;;;;;;5.28;3.00;;;;;;;20.41;36.65;101231.55;1692936;85;21152;-73
2022/10/18 10:34:13;;;;;;;4.37;3.83;;;;;;;20.45;36.68;101219.73;1693613;81;21035;-74
2022/10/18 10:36:52;;;;;;;7.60;3.57;;;;;;;20.46;36.18;101218.16;1685214;83;21084;-76
2022/10/18 10:39:22;;;;;;;5.95;3.42;;;;;;;20.44;36.39;101217.56;1695640;85;21700;-77
2022/10/18 10:41:57;;;;;;;4.70;3.55;;;;;;;20.44;36.62;101210.80;1695378;81;21050;-74
2022/10/18 10:44:31;;;;;;;4.40;3.67;;;;;;;20.48;36.75;101206.55;1695675;83;20981;-73
2022/10/18 10:46:58;;;;;;;13.55;3.12;;;;;;;20.53;36.88;101203.13;1695433;85;21008;-74
2022/10/18 10:49:46;;;;;;;8.43;3.67;;;;;;;20.56;36.89;101197.27;1695529;83;21068;-73
2022/10/18 10:52:19;;;;;;;5.92;3.50;;;;;;;20.60;36.81;101193.05;1695368;83;21556;-73
2022/10/18 10:54:46;;;;;;;6.40;4.03;;;;;;;20.60;36.42;101183.03;1695812;85;20977;-71
2022/10/18 10:57:21;;;;;;;4.75;4.30;;;;;;;20.61;36.61;101181.17;1695435;83;21487;-71
2022/10/18 10:59:51;;;;;;;9.78;3.98;;;;;;;20.64;36.72;101176.63;1695684;85;21045;-71
2022/10/18 11:02:31;;;;;;;5.10;3.60;;;;;;;20.67;36.58;101173.45;1693685;83;21110;-76
2022/10/18 11:05:24;;;;;;;4.17;3.30;;;;;;;20.65;36.27;101167.45;1693776;81;21031;-73
2022/10/18 11:07:58;;;;;;;4.65;3.47;;;;;;;20.64;35.99;101169.85;1694108;85;21112;-77
2022/10/18 11:10:30;;;;;;;6.03;3.90;;;;;;;20.62;35.99;101167.91;1695389;83;20970;-74
2022/10/18 11:13:29;;;;;;;8.75;3.62;;;;;;;20.61;36.32;101159.51;1695580;81;21192;-71
2022/10/18 11:16:15;;;;;;;6.37;3.17;;;;;;;20.62;36.35;101155.72;1695692;85;21037;-75
2022/10/18 11:18:47;;;;;;;6.00;3.00;;;;;;;20.61;36.31;101150.03;1694574;85;20962;-76
2022/10/18 11:21:27;;;;;;;2.87;2.50;;;;;;;20.64;36.29;101150.08;1695422;83;21502;-74
2022/10/18 11:23:55;;;;;;;6.20;2.92;;;;;;;20.63;36.37;101145.20;1670091;85;21084;-75
2022/10/18 11:26:45;;;;;;;6.00;2.80;;;;;;;20.62;36.08;101140.83;1695427;83;20988;-78
2022/10/18 11:29:34;;;;;;;2.95;2.67;;;;;;;20.63;35.73;101127.59;1694555;81;21045;-76
2022/10/18 11:32:15;;;;;;;8.10;3.22;;;;;;;20.65;35.83;101128.72;1695607;85;21129;-74
2022/10/18 11:35:00;;;;;;;3.83;2.77;;;;;;;20.65;35.91;101127.36;1695734;85;21553;-74
2022/10/18 11:37:52;;;;;;;3.50;2.70;;;;;;;20.65;35.99;101126.01;1694910;83;21024;-74
2022/10/18 11:40:33;;;;;;;7.03;2.55;;;;;;;20.67;36.22;101119.82;1693548;83;20981;-71
2022/10/18 11:43:28;;;;;;;4.47;2.67;;;;;;;20.67;35.72;101118.47;1695633;83;21572;-73
2022/10/18 11:46:27;;;;;;;4.78;2.45;;;;;;;20.68;35.94;101116.03;1695667;83;20973;-73
2022/10/18 11:49:31;;;;;;;3.02;2.33;;;;;;;20.69;36.00;101110.38;1695588;83;21041;-71
2022/10/18 11:52:21;;;;;;;3.42;2.77;;;;;;;20.70;35.90;101109.34;1695354;85;21036;-70